sensor_id;sensor_type;location;lat;lon;timestamp;P1;durP1;ratioP1;P2;durP2;ratioP2
23088;SDS011;11713;48.506;8.966;2023-02-03T06:30:06;3.73;;;1.93;;
23088;SDS011;11713;48.506;8.966;2023-02-03T06:32:32;5.83;;;2.17;;
23088;SDS011;11713;48.506;8.966;2023-02-03T06:58:24;3.00;;;1.63;;
23088;SDS011;11713;48.506;8.966;2023-02-03T10:10:21;2.17;;;1.00;;
23088;SDS011;11713;48.506;8.966;2023-02-03T10:18:38;2.83;;;1.20;;
23088;SDS011;11713;48.506;8.966;2023-02-03T10:21:30;2.63;;;1.70;;
23088;SDS011;11713;48.506;8.966;2023-02-03T10:24:02;3.10;;;1.40;;
23088;SDS011;11713;48.506;8.966;2023-02-03T10:26:35;2.13;;;1.27;;
23088;SDS011;11713;48.506;8.966;2023-02-03T10:31:53;3.60;;;1.40;;
23088;SDS011;11713;48.506;8.966;2023-02-03T10:34:19;2.13;;;0.87;;
23088;SDS011;11713;48.506;8.966;2023-02-03T10:42:10;2.33;;;0.90;;
23088;SDS011;11713;48.506;8.966;2023-02-03T10:47:30;0.93;;;0.87;;
23088;SDS011;11713;48.506;8.966;2023-02-03T10:50:13;0.87;;;0.80;;
23088;SDS011;11713;48.506;8.966;2023-02-03T10:52:40;1.83;;;0.80;;
23088;SDS011;11713;48.506;8.966;2023-02-03T10:55:07;1.40;;;0.80;;
23088;SDS011;11713;48.506;8.966;2023-02-03T10:57:54;3.60;;;0.90;;
23088;SDS011;11713;48.506;8.966;2023-02-03T11:00:29;1.00;;;0.80;;
23088;SDS011;11713;48.506;8.966;2023-02-03T11:03:06;2.87;;;0.80;;
23088;SDS011;11713;48.506;8.966;2023-02-03T11:05:35;1.90;;;1.30;;
23088;SDS011;11713;48.506;8.966;2023-02-03T11:08:01;1.73;;;0.90;;
23088;SDS011;11713;48.506;8.966;2023-02-03T11:10:29;2.47;;;0.80;;
23088;SDS011;11713;48.506;8.966;2023-02-03T11:15:52;1.00;;;0.90;;
23088;SDS011;11713;48.506;8.966;2023-02-03T11:18:40;0.63;;;0.63;;
23088;SDS011;11713;48.506;8.966;2023-02-03T11:40:24;1.10;;;0.80;;
23088;SDS011;11713;48.506;8.966;2023-02-03T11:43:15;2.17;;;0.80;;
23088;SDS011;11713;48.506;8.966;2023-02-03T11:45:43;1.60;;;0.73;;
23088;SDS011;11713;48.506;8.966;2023-02-03T11:48:25;1.00;;;0.80;;
23088;SDS011;11713;48.506;8.966;2023-02-03T12:11:44;0.87;;;0.70;;
23088;SDS011;11713;48.506;8.966;2023-02-03T12:14:24;2.53;;;0.80;;
23088;SDS011;11713;48.506;8.966;2023-02-03T12:17:01;2.07;;;1.30;;
23088;SDS011;11713;48.506;8.966;2023-02-03T12:22:42;1.20;;;1.10;;
23088;SDS011;11713;48.506;8.966;2023-02-03T12:25:48;0.90;;;0.73;;
23088;SDS011;11713;48.506;8.966;2023-02-03T12:31:19;1.00;;;0.90;;
23088;SDS011;11713;48.506;8.966;2023-02-03T12:34:40;1.00;;;0.80;;
23088;SDS011;11713;48.506;8.966;2023-02-03T12:37:09;0.83;;;0.70;;
23088;SDS011;11713;48.506;8.966;2023-02-03T12:39:53;0.90;;;0.80;;
23088;SDS011;11713;48.506;8.966;2023-02-03T12:42:31;1.80;;;1.10;;
23088;SDS011;11713;48.506;8.966;2023-02-03T12:47:55;1.93;;;1.20;;
23088;SDS011;11713;48.506;8.966;2023-02-03T12:50:32;1.70;;;1.00;;
23088;SDS011;11713;48.506;8.966;2023-02-03T12:53:08;2.03;;;0.90;;
23088;SDS011;11713;48.506;8.966;2023-02-03T12:55:55;1.17;;;0.80;;
23088;SDS011;11713;48.506;8.966;2023-02-03T12:58:28;1.20;;;0.90;;
23088;SDS011;11713;48.506;8.966;2023-02-03T13:01:05;1.33;;;1.00;;
23088;SDS011;11713;48.506;8.966;2023-02-03T13:03:43;2.73;;;1.00;;
23088;SDS011;11713;48.506;8.966;2023-02-03T13:11:30;1.73;;;1.20;;
23088;SDS011;11713;48.506;8.966;2023-02-03T13:16:39;3.70;;;1.47;;
23088;SDS011;11713;48.506;8.966;2023-02-03T13:19:13;3.50;;;1.60;;
23088;SDS011;11713;48.506;8.966;2023-02-03T13:21:48;2.50;;;1.30;;
23088;SDS011;11713;48.506;8.966;2023-02-03T13:24:15;3.53;;;1.40;;
23088;SDS011;11713;48.506;8.966;2023-02-03T13:29:46;2.83;;;1.93;;
23088;SDS011;11713;48.506;8.966;2023-02-03T13:35:36;1.17;;;0.90;;
23088;SDS011;11713;48.506;8.966;2023-02-03T13:41:08;1.63;;;1.00;;
23088;SDS011;11713;48.506;8.966;2023-02-03T13:44:06;1.43;;;1.13;;
23088;SDS011;11713;48.506;8.966;2023-02-03T13:46:37;0.80;;;0.80;;
23088;SDS011;11713;48.506;8.966;2023-02-03T13:49:15;1.77;;;0.83;;
23088;SDS011;11713;48.506;8.966;2023-02-03T13:51:47;1.27;;;0.90;;
23088;SDS011;11713;48.506;8.966;2023-02-03T13:54:36;2.30;;;1.00;;
23088;SDS011;11713;48.506;8.966;2023-02-03T13:57:03;1.00;;;0.80;;
23088;SDS011;11713;48.506;8.966;2023-02-03T13:59:49;1.20;;;0.87;;
23088;SDS011;11713;48.506;8.966;2023-02-03T14:13:53;7.23;;;3.87;;
23088;SDS011;11713;48.506;8.966;2023-02-03T14:16:40;3.07;;;2.00;;
23088;SDS011;11713;48.506;8.966;2023-02-03T14:24:21;2.77;;;1.43;;
23088;SDS011;11713;48.506;8.966;2023-02-03T14:26:56;4.33;;;2.00;;
23088;SDS011;11713;48.506;8.966;2023-02-03T14:29:34;2.67;;;1.50;;
23088;SDS011;11713;48.506;8.966;2023-02-03T14:32:02;4.00;;;1.67;;
23088;SDS011;11713;48.506;8.966;2023-02-03T14:34:43;1.97;;;1.70;;
23088;SDS011;11713;48.506;8.966;2023-02-03T14:37:54;1.10;;;0.90;;
23088;SDS011;11713;48.506;8.966;2023-02-03T14:49:27;1.73;;;0.80;;
23088;SDS011;11713;48.506;8.966;2023-02-03T14:54:45;0.70;;;0.63;;
23088;SDS011;11713;48.506;8.966;2023-02-03T14:57:48;2.93;;;1.40;;
23088;SDS011;11713;48.506;8.966;2023-02-03T15:05:44;1.97;;;1.77;;
23088;SDS011;11713;48.506;8.966;2023-02-03T15:08:30;2.70;;;1.80;;
23088;SDS011;11713;48.506;8.966;2023-02-03T15:11:22;1.90;;;1.70;;
23088;SDS011;11713;48.506;8.966;2023-02-03T15:13:48;2.50;;;1.23;;
23088;SDS011;11713;48.506;8.966;2023-02-03T15:16:17;2.37;;;1.60;;
23088;SDS011;11713;48.506;8.966;2023-02-03T15:18:45;2.47;;;0.77;;
23088;SDS011;11713;48.506;8.966;2023-02-03T15:21:18;1.00;;;1.00;;
23088;SDS011;11713;48.506;8.966;2023-02-03T15:23:45;0.90;;;0.80;;
23088;SDS011;11713;48.506;8.966;2023-02-03T15:35:34;3.00;;;1.30;;
23088;SDS011;11713;48.506;8.966;2023-02-03T15:38:03;1.10;;;1.00;;
23088;SDS011;11713;48.506;8.966;2023-02-03T15:40:35;1.43;;;1.30;;
23088;SDS011;11713;48.506;8.966;2023-02-03T15:43:07;2.17;;;1.00;;
23088;SDS011;11713;48.506;8.966;2023-02-03T15:45:40;1.60;;;1.20;;
23088;SDS011;11713;48.506;8.966;2023-02-03T15:51:23;2.03;;;1.10;;
23088;SDS011;11713;48.506;8.966;2023-02-03T15:54:54;1.50;;;1.23;;
23088;SDS011;11713;48.506;8.966;2023-02-03T15:56:56;1.20;;;1.10;;
23088;SDS011;11713;48.506;8.966;2023-02-03T15:59:35;1.50;;;1.10;;
23088;SDS011;11713;48.506;8.966;2023-02-03T16:04:56;1.30;;;1.20;;
23088;SDS011;11713;48.506;8.966;2023-02-03T16:07:24;1.80;;;1.30;;
23088;SDS011;11713;48.506;8.966;2023-02-03T16:09:55;1.70;;;1.33;;
23088;SDS011;11713;48.506;8.966;2023-02-03T16:14:56;1.30;;;0.77;;
23088;SDS011;11713;48.506;8.966;2023-02-03T16:17:27;1.67;;;1.00;;
23088;SDS011;11713;48.506;8.966;2023-02-03T16:22:40;1.07;;;0.83;;
23088;SDS011;11713;48.506;8.966;2023-02-03T16:25:30;1.10;;;1.00;;
23088;SDS011;11713;48.506;8.966;2023-02-03T16:31:29;1.60;;;1.20;;
23088;SDS011;11713;48.506;8.966;2023-02-03T16:34:23;1.40;;;1.20;;
23088;SDS011;11713;48.506;8.966;2023-02-03T16:37:21;7.00;;;4.50;;
23088;SDS011;11713;48.506;8.966;2023-02-03T17:03:21;1.50;;;1.40;;
23088;SDS011;11713;48.506;8.966;2023-02-03T17:21:44;1.53;;;1.40;;
23088;SDS011;11713;48.506;8.966;2023-02-03T17:32:31;1.67;;;1.30;;
23088;SDS011;11713;48.506;8.966;2023-02-03T17:35:10;2.30;;;1.50;;
23088;SDS011;11713;48.506;8.966;2023-02-03T17:46:08;2.00;;;1.43;;
23088;SDS011;11713;48.506;8.966;2023-02-03T17:48:35;2.87;;;2.47;;
23088;SDS011;11713;48.506;8.966;2023-02-03T17:53:42;3.23;;;2.37;;
23088;SDS011;11713;48.506;8.966;2023-02-03T17:56:11;3.63;;;2.33;;
23088;SDS011;11713;48.506;8.966;2023-02-03T17:58:45;2.97;;;2.30;;
23088;SDS011;11713;48.506;8.966;2023-02-03T18:01:15;3.87;;;2.30;;
23088;SDS011;11713;48.506;8.966;2023-02-03T18:03:53;3.77;;;2.23;;
23088;SDS011;11713;48.506;8.966;2023-02-03T18:06:21;3.53;;;2.07;;
23088;SDS011;11713;48.506;8.966;2023-02-03T18:08:49;2.57;;;1.50;;
23088;SDS011;11713;48.506;8.966;2023-02-03T18:11:16;1.93;;;1.33;;
23088;SDS011;11713;48.506;8.966;2023-02-03T18:17:44;1.40;;;1.30;;
23088;SDS011;11713;48.506;8.966;2023-02-03T18:25:24;1.33;;;1.23;;
23088;SDS011;11713;48.506;8.966;2023-02-03T19:03:15;2.10;;;1.67;;
23088;SDS011;11713;48.506;8.966;2023-02-03T19:05:41;2.83;;;1.60;;
23088;SDS011;11713;48.506;8.966;2023-02-03T19:08:07;1.90;;;1.80;;
23088;SDS011;11713;48.506;8.966;2023-02-03T19:10:34;2.10;;;1.90;;
23088;SDS011;11713;48.506;8.966;2023-02-03T19:13:00;1.50;;;1.40;;
23088;SDS011;11713;48.506;8.966;2023-02-03T19:15:26;1.30;;;1.20;;
23088;SDS011;11713;48.506;8.966;2023-02-03T19:17:52;1.90;;;1.50;;
23088;SDS011;11713;48.506;8.966;2023-02-03T19:20:18;3.83;;;2.30;;
23088;SDS011;11713;48.506;8.966;2023-02-03T19:22:44;2.07;;;1.87;;
23088;SDS011;11713;48.506;8.966;2023-02-03T19:25:13;2.63;;;2.30;;
23088;SDS011;11713;48.506;8.966;2023-02-03T19:27:43;2.53;;;2.00;;
23088;SDS011;11713;48.506;8.966;2023-02-03T19:30:16;2.10;;;1.90;;
23088;SDS011;11713;48.506;8.966;2023-02-03T19:32:43;4.13;;;2.40;;
23088;SDS011;11713;48.506;8.966;2023-02-03T19:35:12;2.73;;;2.33;;
23088;SDS011;11713;48.506;8.966;2023-02-03T19:37:39;2.97;;;2.37;;
23088;SDS011;11713;48.506;8.966;2023-02-03T19:40:12;3.07;;;2.13;;
23088;SDS011;11713;48.506;8.966;2023-02-03T19:42:38;2.53;;;1.80;;
23088;SDS011;11713;48.506;8.966;2023-02-03T19:45:04;1.50;;;1.20;;
23088;SDS011;11713;48.506;8.966;2023-02-03T19:47:30;2.30;;;1.57;;
23088;SDS011;11713;48.506;8.966;2023-02-03T19:49:56;1.60;;;1.50;;
23088;SDS011;11713;48.506;8.966;2023-02-03T19:52:22;1.40;;;1.20;;
23088;SDS011;11713;48.506;8.966;2023-02-03T19:54:48;2.50;;;1.60;;
23088;SDS011;11713;48.506;8.966;2023-02-03T19:57:18;3.63;;;2.50;;
23088;SDS011;11713;48.506;8.966;2023-02-03T19:59:44;3.47;;;2.40;;
23088;SDS011;11713;48.506;8.966;2023-02-03T20:02:10;3.93;;;3.10;;
23088;SDS011;11713;48.506;8.966;2023-02-03T20:04:41;6.17;;;3.40;;
23088;SDS011;11713;48.506;8.966;2023-02-03T20:07:08;2.50;;;2.20;;
23088;SDS011;11713;48.506;8.966;2023-02-03T20:09:37;2.80;;;2.20;;
23088;SDS011;11713;48.506;8.966;2023-02-03T20:12:03;4.33;;;3.17;;
23088;SDS011;11713;48.506;8.966;2023-02-03T20:14:33;3.90;;;2.93;;
23088;SDS011;11713;48.506;8.966;2023-02-03T20:16:59;2.63;;;2.00;;
23088;SDS011;11713;48.506;8.966;2023-02-03T20:19:25;4.07;;;2.83;;
23088;SDS011;11713;48.506;8.966;2023-02-03T20:21:58;5.73;;;3.73;;
23088;SDS011;11713;48.506;8.966;2023-02-03T20:43:24;3.80;;;3.30;;
23088;SDS011;11713;48.506;8.966;2023-02-03T21:06:11;8.50;;;3.67;;
23088;SDS011;11713;48.506;8.966;2023-02-03T21:10:06;4.47;;;2.03;;
23088;SDS011;11713;48.506;8.966;2023-02-03T21:12:45;3.37;;;3.03;;
23088;SDS011;11713;48.506;8.966;2023-02-03T21:15:18;2.07;;;1.60;;
23088;SDS011;11713;48.506;8.966;2023-02-03T21:17:50;2.53;;;1.80;;
23088;SDS011;11713;48.506;8.966;2023-02-03T21:20:29;1.63;;;1.53;;
23088;SDS011;11713;48.506;8.966;2023-02-03T21:22:56;1.50;;;1.40;;
23088;SDS011;11713;48.506;8.966;2023-02-03T21:25:32;1.30;;;1.20;;
23088;SDS011;11713;48.506;8.966;2023-02-03T21:27:59;1.87;;;1.60;;
23088;SDS011;11713;48.506;8.966;2023-02-03T21:30:27;2.37;;;1.70;;
23088;SDS011;11713;48.506;8.966;2023-02-03T21:32:59;1.53;;;1.43;;
23088;SDS011;11713;48.506;8.966;2023-02-03T21:35:40;1.50;;;1.40;;
23088;SDS011;11713;48.506;8.966;2023-02-03T21:38:24;1.13;;;1.03;;
23088;SDS011;11713;48.506;8.966;2023-02-03T21:40:59;3.30;;;2.70;;
23088;SDS011;11713;48.506;8.966;2023-02-03T21:43:26;2.50;;;2.23;;
23088;SDS011;11713;48.506;8.966;2023-02-03T21:45:57;3.67;;;2.13;;
23088;SDS011;11713;48.506;8.966;2023-02-03T21:51:00;2.57;;;1.90;;
23088;SDS011;11713;48.506;8.966;2023-02-03T21:53:29;6.23;;;3.10;;
23088;SDS011;11713;48.506;8.966;2023-02-03T21:58:41;5.43;;;3.33;;
23088;SDS011;11713;48.506;8.966;2023-02-03T22:01:09;2.83;;;1.70;;
23088;SDS011;11713;48.506;8.966;2023-02-03T22:03:41;4.27;;;2.10;;
23088;SDS011;11713;48.506;8.966;2023-02-03T22:08:48;5.47;;;2.03;;
23088;SDS011;11713;48.506;8.966;2023-02-03T22:11:16;5.10;;;2.00;;
23088;SDS011;11713;48.506;8.966;2023-02-03T22:13:43;3.10;;;1.80;;
23088;SDS011;11713;48.506;8.966;2023-02-03T22:16:10;3.23;;;1.50;;
23088;SDS011;11713;48.506;8.966;2023-02-03T22:18:39;3.40;;;2.10;;
23088;SDS011;11713;48.506;8.966;2023-02-03T22:21:08;1.23;;;1.13;;
23088;SDS011;11713;48.506;8.966;2023-02-03T22:23:35;1.73;;;1.33;;
23088;SDS011;11713;48.506;8.966;2023-02-03T22:26:01;1.97;;;1.40;;
23088;SDS011;11713;48.506;8.966;2023-02-03T22:28:28;1.30;;;1.00;;
23088;SDS011;11713;48.506;8.966;2023-02-03T22:30:54;1.90;;;1.33;;
23088;SDS011;11713;48.506;8.966;2023-02-03T22:33:22;1.57;;;1.40;;
23088;SDS011;11713;48.506;8.966;2023-02-03T22:35:48;1.20;;;1.07;;
23088;SDS011;11713;48.506;8.966;2023-02-03T22:38:15;1.03;;;0.90;;
23088;SDS011;11713;48.506;8.966;2023-02-03T22:40:41;1.10;;;1.00;;
23088;SDS011;11713;48.506;8.966;2023-02-03T22:43:08;1.10;;;1.00;;
23088;SDS011;11713;48.506;8.966;2023-02-03T22:45:34;0.73;;;0.70;;
23088;SDS011;11713;48.506;8.966;2023-02-03T22:48:00;0.67;;;0.63;;
23088;SDS011;11713;48.506;8.966;2023-02-03T22:50:27;0.70;;;0.70;;
23088;SDS011;11713;48.506;8.966;2023-02-03T22:52:53;0.50;;;0.50;;
23088;SDS011;11713;48.506;8.966;2023-02-03T22:55:19;0.50;;;0.50;;
23088;SDS011;11713;48.506;8.966;2023-02-03T22:57:45;0.60;;;0.43;;
23088;SDS011;11713;48.506;8.966;2023-02-03T23:00:12;0.60;;;0.60;;
23088;SDS011;11713;48.506;8.966;2023-02-03T23:02:46;0.70;;;0.70;;
23088;SDS011;11713;48.506;8.966;2023-02-03T23:05:13;0.90;;;0.80;;
23088;SDS011;11713;48.506;8.966;2023-02-03T23:07:39;0.60;;;0.60;;
23088;SDS011;11713;48.506;8.966;2023-02-03T23:10:06;0.60;;;0.60;;
23088;SDS011;11713;48.506;8.966;2023-02-03T23:12:33;0.70;;;0.70;;
23088;SDS011;11713;48.506;8.966;2023-02-03T23:14:59;1.13;;;0.80;;
23088;SDS011;11713;48.506;8.966;2023-02-03T23:17:26;0.60;;;0.60;;
23088;SDS011;11713;48.506;8.966;2023-02-03T23:19:52;1.40;;;0.60;;
23088;SDS011;11713;48.506;8.966;2023-02-03T23:22:18;0.50;;;0.50;;
23088;SDS011;11713;48.506;8.966;2023-02-03T23:24:43;1.23;;;0.50;;
23088;SDS011;11713;48.506;8.966;2023-02-03T23:27:09;0.50;;;0.50;;
23088;SDS011;11713;48.506;8.966;2023-02-03T23:29:35;0.47;;;0.47;;
23088;SDS011;11713;48.506;8.966;2023-02-03T23:32:02;1.30;;;0.63;;
23088;SDS011;11713;48.506;8.966;2023-02-03T23:34:29;0.60;;;0.60;;
23088;SDS011;11713;48.506;8.966;2023-02-03T23:37:13;0.70;;;0.70;;
23088;SDS011;11713;48.506;8.966;2023-02-03T23:39:39;0.93;;;0.70;;
23088;SDS011;11713;48.506;8.966;2023-02-03T23:42:06;0.70;;;0.70;;
23088;SDS011;11713;48.506;8.966;2023-02-03T23:44:33;0.70;;;0.60;;
23088;SDS011;11713;48.506;8.966;2023-02-03T23:46:59;0.90;;;0.90;;
23088;SDS011;11713;48.506;8.966;2023-02-03T23:49:26;0.70;;;0.70;;
23088;SDS011;11713;48.506;8.966;2023-02-03T23:51:52;1.03;;;0.70;;
23088;SDS011;11713;48.506;8.966;2023-02-03T23:54:19;0.97;;;0.83;;
23088;SDS011;11713;48.506;8.966;2023-02-03T23:56:46;0.87;;;0.87;;
23088;SDS011;11713;48.506;8.966;2023-02-03T23:59:12;3.33;;;2.10;;
